Bao An Cheng 69 — BVBD5 — position and weather

sailwx.info

Track history (hours):
 
Tides and Currents Weather Stations Pressure Air Temp Water Temp Dewpoint Dewpoint Depression Visibility Wind Speed Wind Dir Waves Ship Positions

Bao An Cheng 69

Last reported at 2017-Feb-25 06:29 UTC. Time now 2017-Feb-25 18:52 UTC.
Position N 24°07' E 118°16'.

Length 121 m; draft 6 m.

Type: Cargo ship. MMSI: 412703090.

Date/timePositionNaut miles runAvg speedWind from/ knotsBaromVisibWave heightAir tempDewpointWater temp
2017-Feb-25 06:29N 24°07' E 118°16'49 2.3
2017-Feb-24 09:30N 24°49' E 118°43'0 0.0
2017-Feb-24 08:24N 24°49' E 118°43'0 0.0
2017-Feb-24 07:24N 24°49' E 118°43'0 0.0
2017-Feb-24 04:33N 24°49' E 118°43'1 0.5
2017-Feb-24 03:32N 24°49' E 118°44'22 4.3
2017-Feb-23 22:33N 24°29' E 118°37'8 7.9
2017-Feb-23 21:29N 24°23' E 118°30'8 8.0
2017-Feb-23 20:31N 24°19' E 118°23'8 8.0
2017-Feb-23 19:33N 24°15' E 118°15'7 7.1
2017-Feb-23 18:33N 24°11' E 118°09'6 6.5
2017-Feb-23 17:33N 24°07' E 118°03'6 5.9
2017-Feb-23 16:32N 24°03' E 117°58'  
2017-Feb-19 09:23N 24°03' E 118°09'3 0.1
2017-Feb-17 10:28N 23°60' E 118°06'  
Track history (hours):
 
Tides and Currents Weather Stations Pressure Air Temp Water Temp Dewpoint Dewpoint Depression Visibility Wind Speed Wind Dir Waves Ship Positions

Bao An Cheng 69

Last reported at 2017-Feb-25 06:29 UTC. Time now 2017-Feb-25 18:52 UTC.
Position N 24°07' E 118°16'.

Length 121 m; draft 6 m.

Type: Cargo ship. MMSI: 412703090.

Date/timePositionNaut miles runAvg speedWind from/ knotsBaromVisibWave heightAir tempDewpointWater temp
2017-Feb-25 06:29N 24°07' E 118°16'49 2.3
2017-Feb-24 09:30N 24°49' E 118°43'0 0.0
2017-Feb-24 08:24N 24°49' E 118°43'0 0.0
2017-Feb-24 07:24N 24°49' E 118°43'0 0.0
2017-Feb-24 04:33N 24°49' E 118°43'1 0.5
2017-Feb-24 03:32N 24°49' E 118°44'22 4.3
2017-Feb-23 22:33N 24°29' E 118°37'8 7.9
2017-Feb-23 21:29N 24°23' E 118°30'8 8.0
2017-Feb-23 20:31N 24°19' E 118°23'8 8.0
2017-Feb-23 19:33N 24°15' E 118°15'7 7.1
2017-Feb-23 18:33N 24°11' E 118°09'6 6.5
2017-Feb-23 17:33N 24°07' E 118°03'6 5.9
2017-Feb-23 16:32N 24°03' E 117°58'  
2017-Feb-19 09:23N 24°03' E 118°09'3 0.1
2017-Feb-17 10:28N 23°60' E 118°06'  

Dump ship's entire track history